createdAt,value
2019-01-29T00:00:51.181Z,15.87
2019-01-29T00:03:54.462Z,15.87
2019-01-29T00:06:57.695Z,15.30
2019-01-29T00:10:00.836Z,15.90
2019-01-29T00:13:04.193Z,14.63
2019-01-29T00:16:07.539Z,14.67
2019-01-29T00:19:10.782Z,14.00
2019-01-29T00:22:14.266Z,14.13
2019-01-29T00:25:17.577Z,12.10
2019-01-29T00:28:20.830Z,12.63
2019-01-29T00:31:23.970Z,11.30
2019-01-29T00:34:27.175Z,11.30
2019-01-29T00:37:30.402Z,10.77
2019-01-29T00:40:33.650Z,8.83
2019-01-29T00:43:36.898Z,9.40
2019-01-29T00:46:40.139Z,9.43
2019-01-29T00:49:43.491Z,9.73
2019-01-29T00:52:47.613Z,10.60
2019-01-29T00:55:52.829Z,11.07
2019-01-29T00:58:57.806Z,11.33
2019-01-29T01:02:03.689Z,12.27
2019-01-29T01:05:07.558Z,13.83
2019-01-29T01:08:10.859Z,13.17
2019-01-29T01:11:14.227Z,14.30
2019-01-29T01:14:17.348Z,14.60
2019-01-29T01:17:20.947Z,15.80
2019-01-29T01:20:24.152Z,14.77
2019-01-29T01:23:27.674Z,15.50
2019-01-29T01:26:30.858Z,15.83
2019-01-29T01:29:34.281Z,16.37
2019-01-29T01:32:37.674Z,15.60
2019-01-29T01:35:41.054Z,16.77
2019-01-29T01:38:44.141Z,15.93
2019-01-29T01:41:47.319Z,16.30
2019-01-29T01:44:50.527Z,15.87
2019-01-29T01:47:53.722Z,14.30
2019-01-29T01:50:57.015Z,15.13
2019-01-29T01:54:00.215Z,14.60
2019-01-29T01:57:03.510Z,14.10
2019-01-29T02:00:09.349Z,14.50
2019-01-29T02:03:12.772Z,15.20
2019-01-29T02:06:16.070Z,12.17
2019-01-29T02:09:19.393Z,14.60
2019-01-29T02:12:22.666Z,15.57
2019-01-29T02:15:25.960Z,13.30
2019-01-29T02:18:29.259Z,15.57
2019-01-29T02:21:32.577Z,15.13
2019-01-29T02:24:35.854Z,14.27
2019-01-29T02:27:39.127Z,13.43
2019-01-29T02:30:43.278Z,13.43
2019-01-29T02:33:46.354Z,13.17
2019-01-29T02:36:49.558Z,13.17
2019-01-29T02:39:52.746Z,12.97
2019-01-29T02:42:56.966Z,12.87
2019-01-29T02:46:00.058Z,11.77
2019-01-29T02:49:03.783Z,9.03
2019-01-29T02:52:07.266Z,10.93
2019-01-29T02:55:10.874Z,10.90
2019-01-29T02:58:14.081Z,7.87
2019-01-29T03:01:17.584Z,9.10
2019-01-29T03:04:20.662Z,6.03
2019-01-29T03:11:59.520Z,6.27
2019-01-29T03:15:03.493Z,6.37
2019-01-29T03:18:07.131Z,6.60
2019-01-29T03:21:10.595Z,6.93
2019-01-29T03:24:15.643Z,6.63
2019-01-29T03:27:19.147Z,7.60
2019-01-29T03:30:22.490Z,7.13
2019-01-29T03:33:26.052Z,6.40
2019-01-29T03:36:29.382Z,7.40
2019-01-29T03:39:32.683Z,6.70
2019-01-29T03:42:35.982Z,6.97
2019-01-29T03:45:39.215Z,7.33
2019-01-29T03:48:42.613Z,5.73
2019-01-29T03:51:46.150Z,7.83
2019-01-29T03:54:49.377Z,7.40
2019-01-29T03:57:52.719Z,8.47
2019-01-29T04:00:55.866Z,7.93
2019-01-29T04:03:59.065Z,7.67
2019-01-29T04:07:02.458Z,7.17
2019-01-29T04:10:06.279Z,7.40
2019-01-29T04:13:09.363Z,6.97
2019-01-29T04:16:12.663Z,7.57
2019-01-29T04:19:16.297Z,7.43
2019-01-29T04:22:20.227Z,6.67
2019-01-29T04:25:23.888Z,7.40
2019-01-29T04:28:27.231Z,6.47
2019-01-29T04:31:30.555Z,6.63
2019-01-29T04:34:34.693Z,7.13
2019-01-29T04:37:37.991Z,7.97
2019-01-29T04:40:41.442Z,6.53
2019-01-29T04:43:44.487Z,7.70
2019-01-29T04:46:47.869Z,7.97
2019-01-29T04:49:51.083Z,8.00
2019-01-29T04:52:54.215Z,7.47
2019-01-29T04:55:57.369Z,8.13
2019-01-29T04:59:00.833Z,6.60
2019-01-29T05:02:04.094Z,8.17
2019-01-29T05:05:09.236Z,7.40
2019-01-29T05:08:12.407Z,8.27
2019-01-29T05:11:15.647Z,9.73
2019-01-29T05:14:18.895Z,9.03
2019-01-29T05:17:22.241Z,9.60
2019-01-29T05:20:25.394Z,10.07
2019-01-29T05:23:28.555Z,10.97
2019-01-29T05:26:31.885Z,10.37
2019-01-29T05:29:35.126Z,9.03
2019-01-29T05:32:38.167Z,10.90
2019-01-29T05:35:41.414Z,10.53
2019-01-29T05:38:44.558Z,11.13
2019-01-29T05:41:47.874Z,9.23
2019-01-29T05:44:51.055Z,10.70
2019-01-29T05:47:54.247Z,10.93
2019-01-29T05:50:57.442Z,11.63
2019-01-29T05:54:00.742Z,11.17
2019-01-29T05:57:03.934Z,10.70
2019-01-29T06:00:10.918Z,11.40
2019-01-29T06:03:14.218Z,10.80
2019-01-29T06:06:18.538Z,11.67
2019-01-29T06:09:21.735Z,11.80
2019-01-29T06:12:24.936Z,11.63
2019-01-29T06:15:30.087Z,11.63
2019-01-29T06:18:33.172Z,9.97
2019-01-29T06:21:36.458Z,11.70
2019-01-29T06:24:39.554Z,11.93
2019-01-29T06:27:42.851Z,11.37
2019-01-29T06:30:45.947Z,10.70
2019-01-29T06:33:48.724Z,11.13
2019-01-29T06:36:51.890Z,9.80
2019-01-29T06:39:55.110Z,7.90
2019-01-29T06:42:58.329Z,10.57
2019-01-29T06:46:01.398Z,10.37
2019-01-29T06:49:04.698Z,8.17
2019-01-29T06:52:07.886Z,8.97
2019-01-29T06:55:13.143Z,9.73
2019-01-29T06:58:16.303Z,9.10
2019-01-29T07:01:19.458Z,9.57
2019-01-29T07:04:22.512Z,9.47
2019-01-29T07:07:25.647Z,9.63
2019-01-29T07:10:28.816Z,10.40
2019-01-29T07:13:32.042Z,10.47
2019-01-29T07:17:03.462Z,10.43
2019-01-29T07:20:09.478Z,10.20
2019-01-29T07:23:13.282Z,10.53
2019-01-29T07:26:17.129Z,11.97
2019-01-29T07:29:20.329Z,13.87
2019-01-29T07:32:23.559Z,14.43
2019-01-29T07:35:26.620Z,10.30
2019-01-29T07:38:29.863Z,9.80
2019-01-29T07:41:33.086Z,10.90
2019-01-29T07:44:36.566Z,10.33
2019-01-29T07:47:39.698Z,12.93
2019-01-29T07:50:42.930Z,11.30
2019-01-29T07:53:45.998Z,10.63
2019-01-29T07:56:49.167Z,14.67
2019-01-29T07:59:52.281Z,9.70
2019-01-29T08:02:55.411Z,8.73
2019-01-29T08:05:58.566Z,9.03
2019-01-29T08:09:01.809Z,9.70
2019-01-29T08:12:06.088Z,8.80
2019-01-29T08:15:10.318Z,8.00
2019-01-29T08:18:13.402Z,9.00
2019-01-29T08:21:16.642Z,7.93
2019-01-29T08:24:19.682Z,7.67
2019-01-29T08:27:23.134Z,9.20
2019-01-29T08:30:26.382Z,10.60
2019-01-29T08:33:29.642Z,8.00
2019-01-29T08:36:32.775Z,9.30
2019-01-29T08:39:36.019Z,8.20
2019-01-29T08:42:39.365Z,8.80
2019-01-29T08:45:42.557Z,9.23
2019-01-29T08:48:45.758Z,8.07
2019-01-29T08:51:48.954Z,8.90
2019-01-29T08:54:52.046Z,8.77
2019-01-29T08:57:55.141Z,8.80
2019-01-29T09:00:58.232Z,8.87
2019-01-29T09:04:01.327Z,8.87
2019-01-29T09:07:04.718Z,8.43
2019-01-29T09:10:09.930Z,9.90
2019-01-29T09:13:13.162Z,9.13
2019-01-29T09:16:17.834Z,9.40
2019-01-29T09:19:20.886Z,9.27
2019-01-29T09:22:24.082Z,10.30
2019-01-29T09:25:27.171Z,8.07
2019-01-29T09:28:30.366Z,11.00
2019-01-29T09:31:33.486Z,9.93
2019-01-29T09:34:36.554Z,9.13
2019-01-29T09:37:39.642Z,10.50
2019-01-29T09:40:42.940Z,7.77
2019-01-29T09:43:46.135Z,8.43
2019-01-29T09:46:49.234Z,8.97
2019-01-29T09:49:52.327Z,8.90
2019-01-29T09:52:56.442Z,8.77
2019-01-29T09:55:59.634Z,9.17
2019-01-29T09:59:02.935Z,8.70
2019-01-29T10:02:06.022Z,6.77
2019-01-29T10:05:09.222Z,8.77
2019-01-29T10:08:12.418Z,9.10
2019-01-29T10:11:15.630Z,8.47
2019-01-29T10:14:20.418Z,8.17
2019-01-29T10:17:25.799Z,8.00
2019-01-29T10:20:29.603Z,7.17
2019-01-29T10:23:33.353Z,7.63
2019-01-29T10:26:36.502Z,7.57
2019-01-29T10:29:39.849Z,8.10
2019-01-29T10:32:44.024Z,7.17
2019-01-29T10:35:47.154Z,7.57
2019-01-29T10:38:50.305Z,7.83
2019-01-29T10:41:53.804Z,7.00
2019-01-29T10:44:57.021Z,7.83
2019-01-29T10:48:00.230Z,7.30
2019-01-29T10:51:03.671Z,7.93
2019-01-29T10:54:07.675Z,7.70
2019-01-29T10:57:10.702Z,7.10
2019-01-29T11:00:16.873Z,7.03
2019-01-29T11:03:19.962Z,6.93
2019-01-29T11:06:23.205Z,6.33
2019-01-29T11:09:26.349Z,6.43
2019-01-29T11:12:29.582Z,6.37
2019-01-29T11:15:34.926Z,6.47
2019-01-29T11:18:38.749Z,6.37
2019-01-29T11:21:41.999Z,6.40
2019-01-29T11:24:45.410Z,6.20
2019-01-29T11:27:48.599Z,5.57
2019-01-29T11:30:52.353Z,4.80
2019-01-29T11:33:55.598Z,5.43
2019-01-29T11:36:58.946Z,5.70
2019-01-29T11:40:01.990Z,5.70
2019-01-29T11:43:06.050Z,5.40
2019-01-29T11:46:09.302Z,5.53
2019-01-29T11:49:12.440Z,5.20
2019-01-29T11:52:15.690Z,5.67
2019-01-29T11:55:18.973Z,5.17
2019-01-29T11:58:22.082Z,4.67
2019-01-29T12:01:26.653Z,3.93
2019-01-29T12:04:31.504Z,4.93
2019-01-29T12:07:34.778Z,4.70
2019-01-29T12:10:37.835Z,4.57
2019-01-29T12:13:41.106Z,5.27
2019-01-29T12:16:44.322Z,2.87
2019-01-29T12:19:47.670Z,4.93
2019-01-29T12:22:50.818Z,4.13
2019-01-29T12:25:55.693Z,4.93
2019-01-29T12:28:58.848Z,4.93
2019-01-29T12:32:02.087Z,5.83
2019-01-29T12:35:05.984Z,4.50
2019-01-29T12:38:09.075Z,4.93
2019-01-29T12:41:12.271Z,5.33
2019-01-29T12:44:15.566Z,5.70
2019-01-29T12:47:18.654Z,4.50
2019-01-29T12:50:22.572Z,5.20
2019-01-29T12:53:29.718Z,4.50
2019-01-29T12:56:32.851Z,4.83
2019-01-29T12:59:36.042Z,3.77
2019-01-29T13:02:39.144Z,5.10
2019-01-29T13:05:42.226Z,5.10
2019-01-29T13:08:45.323Z,5.03
2019-01-29T13:11:48.414Z,5.37
2019-01-29T13:14:51.512Z,4.20
2019-01-29T13:17:54.807Z,3.83
2019-01-29T13:20:57.901Z,4.27
2019-01-29T13:24:00.991Z,3.93
2019-01-29T13:27:04.394Z,3.43
2019-01-29T13:30:12.206Z,3.00
2019-01-29T13:33:15.462Z,3.97
2019-01-29T13:36:21.454Z,4.10
2019-01-29T13:39:24.631Z,4.63
2019-01-29T13:42:27.837Z,4.20
2019-01-29T13:45:31.493Z,3.70
2019-01-29T13:48:34.739Z,3.87
2019-01-29T13:51:37.886Z,4.13
2019-01-29T13:54:41.030Z,3.37
2019-01-29T13:57:44.486Z,4.33
2019-01-29T14:00:47.827Z,4.40
2019-01-29T14:03:50.966Z,4.50
2019-01-29T14:06:54.322Z,4.97
2019-01-29T14:09:57.566Z,5.30
2019-01-29T14:13:00.610Z,4.60
2019-01-29T14:16:07.110Z,4.67
2019-01-29T14:19:10.380Z,4.60
2019-01-29T14:22:13.610Z,3.97
2019-01-29T14:25:16.778Z,4.53
2019-01-29T14:28:20.074Z,4.60
2019-01-29T14:31:23.262Z,4.27
2019-01-29T14:34:26.562Z,4.70
2019-01-29T14:37:34.061Z,4.67
2019-01-29T14:40:39.337Z,4.90
2019-01-29T14:43:45.746Z,4.33
2019-01-29T14:46:49.034Z,5.53
2019-01-29T14:49:52.165Z,4.60
2019-01-29T14:52:55.494Z,5.07
2019-01-29T14:55:58.666Z,4.80
2019-01-29T14:59:01.862Z,4.90
2019-01-29T15:02:05.039Z,5.07
2019-01-29T15:05:08.377Z,4.87
2019-01-29T15:08:11.538Z,6.17
2019-01-29T15:11:14.852Z,5.70
2019-01-29T15:14:18.034Z,5.20
2019-01-29T15:17:44.223Z,5.73
2019-01-29T15:20:47.562Z,5.77
2019-01-29T15:23:50.834Z,5.90
2019-01-29T15:26:53.954Z,6.20
2019-01-29T15:29:57.087Z,5.43
2019-01-29T15:33:00.238Z,6.10
2019-01-29T15:36:05.562Z,6.00
2019-01-29T15:39:08.883Z,5.10
2019-01-29T15:42:12.230Z,5.50
2019-01-29T15:45:17.118Z,5.63
2019-01-29T15:48:20.254Z,5.93
2019-01-29T15:51:23.506Z,6.27
2019-01-29T15:54:26.798Z,5.77
2019-01-29T15:57:30.065Z,5.50
2019-01-29T16:00:33.409Z,6.33
2019-01-29T16:03:36.709Z,6.00
2019-01-29T16:06:41.022Z,5.00
2019-01-29T16:09:44.410Z,5.20
2019-01-29T16:12:47.514Z,5.63
2019-01-29T16:15:50.686Z,5.37
2019-01-29T16:18:53.801Z,6.43
2019-01-29T16:21:57.099Z,6.33
2019-01-29T16:25:00.294Z,6.80
2019-01-29T16:28:03.798Z,6.50
2019-01-29T16:31:06.889Z,7.20
2019-01-29T16:34:11.268Z,7.23
2019-01-29T16:37:14.375Z,6.20
2019-01-29T16:40:18.518Z,6.63
2019-01-29T16:43:21.618Z,5.97
2019-01-29T16:46:25.842Z,6.23
2019-01-29T16:49:28.926Z,6.50
2019-01-29T16:52:32.019Z,7.23
2019-01-29T16:55:35.217Z,6.87
2019-01-29T16:58:38.307Z,5.60
2019-01-29T17:01:41.406Z,5.77
2019-01-29T17:04:44.494Z,5.23
2019-01-29T17:07:47.735Z,5.37
2019-01-29T17:10:50.982Z,5.63
2019-01-29T17:13:55.242Z,6.47
2019-01-29T17:16:58.295Z,6.03
2019-01-29T17:20:01.641Z,5.77
2019-01-29T17:23:05.813Z,6.27
2019-01-29T17:26:09.122Z,6.07
2019-01-29T17:29:12.209Z,6.10
2019-01-29T17:32:15.756Z,6.47
2019-01-29T17:35:18.754Z,5.30
2019-01-29T17:38:23.270Z,6.20
2019-01-29T17:41:26.522Z,5.37
2019-01-29T17:44:29.944Z,5.83
2019-01-29T17:47:34.014Z,5.63
2019-01-29T17:50:38.502Z,6.47
2019-01-29T17:53:41.439Z,5.83
2019-01-29T17:56:45.501Z,7.57
2019-01-29T17:59:48.659Z,5.73
2019-01-29T18:02:51.907Z,6.17
2019-01-29T18:05:55.050Z,6.03
2019-01-29T18:08:58.395Z,6.80
2019-01-29T18:12:01.442Z,6.40
2019-01-29T18:15:06.078Z,7.83
2019-01-29T18:18:09.266Z,8.50
2019-01-29T18:21:12.475Z,8.63
2019-01-29T18:24:15.555Z,6.70
2019-01-29T18:27:18.782Z,6.67
2019-01-29T18:30:24.570Z,6.67
2019-01-29T18:33:27.842Z,6.73
2019-01-29T18:36:30.997Z,6.53
2019-01-29T18:39:40.762Z,6.37
2019-01-29T18:42:43.921Z,7.03
2019-01-29T18:45:47.343Z,6.33
2019-01-29T18:48:50.429Z,6.23
2019-01-29T18:51:53.782Z,7.93
2019-01-29T18:54:56.922Z,8.30
2019-01-29T18:58:00.174Z,7.87
2019-01-29T19:01:03.529Z,7.80
2019-01-29T19:04:06.766Z,7.43
2019-01-29T19:07:12.210Z,8.33
2019-01-29T19:10:16.949Z,8.00
2019-01-29T19:13:20.066Z,8.00
2019-01-29T19:16:23.334Z,7.40
2019-01-29T19:19:26.478Z,7.50
2019-01-29T19:22:29.617Z,8.00
2019-01-29T19:25:32.662Z,9.07
2019-01-29T19:28:36.017Z,8.20
2019-01-29T19:31:39.055Z,8.80
2019-01-29T19:34:42.153Z,8.63
2019-01-29T19:37:45.338Z,8.20
2019-01-29T19:40:48.438Z,8.70
2019-01-29T19:43:51.530Z,11.00
2019-01-29T19:46:54.728Z,9.80
2019-01-29T19:49:57.818Z,8.10
2019-01-29T19:53:01.015Z,8.33
2019-01-29T19:56:04.411Z,9.73
2019-01-29T19:59:07.642Z,8.50
2019-01-29T20:02:10.834Z,9.33
2019-01-29T20:05:14.100Z,8.97
2019-01-29T20:08:17.194Z,9.37
2019-01-29T20:11:20.385Z,9.50
2019-01-29T20:14:23.585Z,9.60
2019-01-29T20:17:26.674Z,10.10
2019-01-29T20:20:32.398Z,10.10
2019-01-29T20:23:35.810Z,10.13
2019-01-29T20:26:39.026Z,10.77
2019-01-29T20:29:42.218Z,10.20
2019-01-29T20:32:53.131Z,11.83
2019-01-29T20:35:50.319Z,12.67
2019-01-29T20:38:53.446Z,13.70
2019-01-29T20:42:06.616Z,13.63
2019-01-29T20:45:10.494Z,12.70
2019-01-29T20:48:13.678Z,12.50
2019-01-29T20:51:16.874Z,13.27
2019-01-29T20:54:20.194Z,12.80
2019-01-29T20:57:23.378Z,12.50
2019-01-29T21:00:28.742Z,13.47
2019-01-29T21:03:32.011Z,12.87
2019-01-29T21:06:35.354Z,13.13
2019-01-29T21:09:38.502Z,13.83
2019-01-29T21:12:41.634Z,13.50
2019-01-29T21:15:44.690Z,14.47
2019-01-29T21:18:47.823Z,14.37
2019-01-29T21:21:50.979Z,14.53
2019-01-29T21:24:54.210Z,12.87
2019-01-29T21:27:57.838Z,13.43
2019-01-29T21:31:01.494Z,14.47
2019-01-29T21:34:04.780Z,14.87
2019-01-29T21:37:09.104Z,15.87
2019-01-29T21:40:13.970Z,15.20
2019-01-29T21:43:18.319Z,15.00
2019-01-29T21:46:21.655Z,14.50
2019-01-29T21:49:24.878Z,14.33
2019-01-29T21:52:27.942Z,15.23
2019-01-29T21:55:31.207Z,15.27
2019-01-29T21:58:34.438Z,15.50
2019-01-29T22:01:37.978Z,15.37
2019-01-29T22:04:41.034Z,14.40
2019-01-29T22:07:44.174Z,15.47
2019-01-29T22:10:47.322Z,14.20
2019-01-29T22:13:50.660Z,16.40
2019-01-29T22:16:53.817Z,14.67
2019-01-29T22:19:57.369Z,14.47
2019-01-29T22:23:00.921Z,14.33
2019-01-29T22:26:04.182Z,14.63
2019-01-29T22:29:07.409Z,17.23
2019-01-29T22:32:10.582Z,16.57
2019-01-29T22:35:13.804Z,15.30
2019-01-29T22:38:17.110Z,14.83
2019-01-29T22:41:20.194Z,14.10
2019-01-29T22:44:23.454Z,14.33
2019-01-29T22:47:26.582Z,14.27
2019-01-29T22:50:31.738Z,13.90
2019-01-29T22:53:34.814Z,14.67
2019-01-29T22:56:38.068Z,14.67
2019-01-29T22:59:41.106Z,13.60
2019-01-29T23:02:44.301Z,13.90
2019-01-29T23:05:57.943Z,13.60
2019-01-29T23:09:01.141Z,14.40
2019-01-29T23:12:04.838Z,13.93
2019-01-29T23:15:10.262Z,14.67
2019-01-29T23:18:13.386Z,14.57
2019-01-29T23:21:16.477Z,15.03
2019-01-29T23:24:19.878Z,15.13
2019-01-29T23:27:23.075Z,14.87
2019-01-29T23:30:26.370Z,15.20
2019-01-29T23:33:29.561Z,15.20
2019-01-29T23:36:32.654Z,15.20
2019-01-29T23:39:35.752Z,15.17
2019-01-29T23:42:38.943Z,14.47
2019-01-29T23:45:43.062Z,13.80
2019-01-29T23:48:46.257Z,13.87
2019-01-29T23:51:50.526Z,13.60
2019-01-29T23:54:53.567Z,14.10
2019-01-29T23:57:56.765Z,13.70
